Tropical Cyclones
[Index]
Main Index Home Page Stock Weather Photos Extreme Storms Discussion Storm News and Storm Chasing Reports Tropical Cyclones / Hurricanes / Typhoons Weather Data and Links Wild Fires / Bushfires Weather Observation Techniques Weather Picture Catalogue Tornado Pictures and Reports Stock Video Footage and DVDs for sale
Season 2005-2006 Tropical Cyclone MONICA Track Map
Season 2005-2006 Summaries: [BoM-AU] [JTWC-AU] [JTWC-SIO] [JTWC-SPAC] [JTWC-SH]
<<- Previous TC | BoM 2005-2006 Season | Next TC ->>

click for intensity scale information  Lat/long Grid: Show Hide

 Date Labels: Show Hide

Bureau of Meteorology Tropical Cyclone Data

Name: MONICA
Number: 902 / 200506_22

16 Apr 2006 00:00 UTC to 27 Apr 2006 18:00 UTC

    date/time    lat    long    hPa   cat  kts
2006-04-16 00    9.5   152.5   1003         25          
2006-04-16 06   11.1   151.3   1003         25          
2006-04-16 12   11.5   151.0   1003         25          
2006-04-16 18   11.5   151.0   1000         30          
2006-04-17 00   12.3   150.5    994    1    40          
2006-04-17 06   12.3   149.8    994    1    40          
2006-04-17 12   12.3   149.4    990    1    45          
2006-04-17 18   12.5   148.5    985    2    50          
2006-04-18 00   12.7   148.3    980    2    60          
2006-04-18 06   13.0   146.5    975    2    65          
2006-04-18 12   12.7   145.4    970    3    70          
2006-04-18 18   12.9   144.8    965    3    75          
2006-04-19 00   13.0   144.3    965    3    75          
2006-04-19 06   13.2   143.4    965    3    75          
2006-04-19 12   13.5   142.6    970    3    60          
2006-04-19 18   13.5   141.9    985    2    45          
2006-04-20 00   13.8   141.3    990    1    40          
2006-04-20 06   14.1   140.7    987    1    40          
2006-04-20 12   13.8   140.5    984    2    50          
2006-04-20 18   13.7   140.2    976    2    55          
2006-04-21 00   13.5   140.1    971    2    65          
2006-04-21 06   13.3   139.9    959    3    80          
2006-04-21 12   13.1   139.7    954    4    90          
2006-04-21 18   12.8   139.6    953    4    90          
2006-04-22 00   12.6   139.4    947    4    100          
2006-04-22 06   12.5   139.2    935    4    110          
2006-04-22 12   12.1   138.8    928    5    125          
2006-04-22 18   11.8   138.4    928    5    125          
2006-04-23 00   11.4   138.0    929    5    125          
2006-04-23 06   11.4   137.4    916    5    135          
2006-04-23 12   11.3   137.0    919    5    135          
2006-04-23 18   11.3   135.8    917    5    135          
2006-04-24 00   11.4   135.2    919    5    135          
2006-04-24 06   11.7   134.4    917    5    135          
2006-04-24 09   11.8   134.0    917    5    135          
2006-04-24 12   12.0   133.7    954    4    90          
2006-04-24 18   12.6   132.9    983    2    50          
2006-04-24 21   12.6   132.0    994    1    30          
2006-04-25 00   12.5   131.4    998         25          
2006-04-25 06   12.3   130.7    998         25          
2006-04-25 12   12.4   130.5    998         30          
2006-04-25 18   12.7   130.2    995    1    30          
2006-04-26 00   13.2   129.6    996         30          
2006-04-26 06   13.6   129.4    995    1    30          
2006-04-26 12   14.0   129.9   1000         20          
2006-04-26 18   14.6   130.3   1002         20          
2006-04-27 00   15.4   130.8   1004         20          
2006-04-27 06   17.1   131.4   1003         20          
2006-04-27 12   17.5   131.9   1005         20          
2006-04-27 18   17.8   132.6   1005         20          
Winds are 10-min average.

Tropical cyclone tracks developed by Michael Bath using data from the Bureau of Meteorology and Google Maps.


[Australian Severe Weather index] [Copyright Notice] [Email Contacts] [Search This Site] [Privacy Policy]
Document: tropical_cyclone_monica.htm Updated: 29 June 2017